Estación Meteorológica Peña el Pijo (Robertgarden) [ 11/20/18 01:08:12 CET ]

Fecha Hora Presion(HPa) Temp (°C) Humedad % Rocio (°C) Viento ( m/s) Direccion Lluvia 1Hora(mm) Lluvia 24H(mm) LLuvia Total(mm)
2018-Nov-10 01:01:42 1009.500 7.4 75 3.2       1.03 102.04
2018-Nov-10 02:05:11 1009.100 7.4 76 3.4       1.03 102.04
2018-Nov-10 03:02:01 1008.800 7.4 77 3.6       1.03 102.04
2018-Nov-10 04:01:41 1007.800 6.9 79 3.5       1.03 102.04
2018-Nov-10 05:01:48 1007.400 7.2 81 4.2       1.03 102.04
2018-Nov-10 06:01:48 1007.200 7.2 82 4.3       1.03 102.04
2018-Nov-10 07:01:42 1007.200 8.9 82 6.0         102.04
2018-Nov-10 08:02:04 1007.200 6.4 82 3.5         102.04
2018-Nov-10 09:01:57 1007.500 7.8 86 5.6         102.04
2018-Nov-10 10:02:03 1007.800 11.8 78 8.1         102.04
2018-Nov-10 11:01:57 1008.200 12.8 72 7.9         102.04
2018-Nov-10 12:01:46 1007.800 13.8 66 7.5         102.04
2018-Nov-10 13:01:56 1006.900 14.8 65 8.3         102.04
2018-Nov-10 14:01:52 1006.200 18.1 53 8.3         102.04
2018-Nov-10 15:01:38 1006.200 17.6 50 7.0 1.6 NNW     102.04
2018-Nov-10 16:01:48 1006.600 16.4 50 6.0         102.04
2018-Nov-10 17:01:43 1006.600 14.9 55 5.9 1.3 NW     102.04
2018-Nov-10 18:01:35 1006.800 13.3 60 5.7         102.04
2018-Nov-10 19:01:41 1007.200 11.2 65 4.8         102.04
2018-Nov-10 20:01:38 1007.700 10.2 69 4.8         102.04
2018-Nov-10 21:01:39 1007.600 10.1 74 5.7         102.04
2018-Nov-10 22:01:47 1008.000 10.2 75 5.9         102.04
2018-Nov-10 23:01:44 1008.000 10.6 77 6.7         102.04

Temperatura Máxima:18°    Temperatura Mínima:
Presión Máxima:1009.500 Hpa    Presión Mínima:1006.200 Hpa


Volver